createdAt,value
2017-08-02T00:02:23.041Z,10.03
2017-08-02T00:04:50.547Z,9.20
2017-08-02T00:07:19.002Z,10.63
2017-08-02T00:15:06.496Z,11.10
2017-08-02T00:17:33.969Z,9.80
2017-08-02T00:20:01.451Z,10.10
2017-08-02T00:22:28.917Z,9.83
2017-08-02T00:24:57.150Z,9.80
2017-08-02T00:27:24.617Z,10.10
2017-08-02T00:29:52.202Z,10.23
2017-08-02T00:32:19.668Z,9.83
2017-08-02T00:34:47.913Z,10.40
2017-08-02T00:37:15.386Z,9.53
2017-08-02T00:39:42.875Z,10.73
2017-08-02T00:42:10.471Z,9.30
2017-08-02T00:44:37.950Z,10.00
2017-08-02T00:47:05.429Z,11.57
2017-08-02T00:49:33.661Z,12.03
2017-08-02T00:52:01.129Z,11.27
2017-08-02T00:54:28.616Z,12.10
2017-08-02T00:56:56.188Z,12.63
2017-08-02T00:59:24.438Z,12.90
2017-08-02T01:01:51.906Z,13.20
2017-08-02T01:04:20.135Z,14.90
2017-08-02T01:06:47.605Z,14.80
2017-08-02T01:09:15.205Z,14.80
2017-08-02T01:11:43.433Z,17.20
2017-08-02T01:14:10.913Z,17.90
2017-08-02T01:16:38.412Z,18.37
2017-08-02T01:19:05.885Z,17.47
2017-08-02T01:21:33.447Z,16.47
2017-08-02T01:24:01.118Z,17.13
2017-08-02T01:26:28.595Z,16.83
2017-08-02T01:28:56.133Z,15.77
2017-08-02T01:31:23.601Z,16.87
2017-08-02T01:33:51.077Z,15.33
2017-08-02T01:36:18.547Z,14.47
2017-08-02T01:38:46.880Z,15.50
2017-08-02T01:41:14.369Z,15.17
2017-08-02T01:43:41.841Z,14.97
2017-08-02T01:46:09.453Z,15.10
2017-08-02T01:48:36.917Z,16.23
2017-08-02T01:51:04.398Z,14.03
2017-08-02T01:53:31.881Z,16.83
2017-08-02T01:56:00.104Z,15.70
2017-08-02T01:58:27.792Z,15.53
2017-08-02T02:00:55.262Z,15.60
2017-08-02T02:03:22.737Z,15.00
2017-08-02T02:05:50.201Z,16.20
2017-08-02T02:08:17.684Z,16.63
2017-08-02T02:10:45.164Z,13.87
2017-08-02T02:13:12.639Z,16.47
2017-08-02T02:15:40.105Z,16.13
2017-08-02T02:18:08.888Z,16.83
2017-08-02T02:20:36.345Z,16.93
2017-08-02T02:23:04.593Z,19.50
2017-08-02T02:25:32.095Z,18.57
2017-08-02T02:28:00.324Z,20.23
2017-08-02T02:30:27.808Z,20.47
2017-08-02T02:32:55.281Z,20.87
2017-08-02T02:35:23.642Z,19.33
2017-08-02T02:37:51.127Z,20.40
2017-08-02T02:40:18.607Z,20.50
2017-08-02T02:42:46.089Z,18.83
2017-08-02T02:45:13.618Z,20.07
2017-08-02T02:47:41.088Z,19.50
2017-08-02T02:50:08.576Z,19.37
2017-08-02T02:52:36.058Z,18.27
2017-08-02T02:55:04.314Z,21.63
2017-08-02T02:57:31.779Z,23.00
2017-08-02T03:00:00.038Z,21.40
2017-08-02T03:02:27.521Z,21.13
2017-08-02T03:04:55.785Z,20.67
2017-08-02T03:07:24.081Z,21.43
2017-08-02T03:09:52.320Z,22.57
2017-08-02T03:12:19.801Z,23.07
2017-08-02T03:14:48.053Z,24.10
2017-08-02T03:17:15.530Z,21.00
2017-08-02T03:19:43.777Z,21.00
2017-08-02T03:22:11.268Z,20.47
2017-08-02T03:24:39.499Z,21.50
2017-08-02T03:27:07.176Z,22.40
2017-08-02T03:29:34.658Z,21.27
2017-08-02T03:32:02.889Z,22.93
2017-08-02T03:34:30.840Z,22.20
2017-08-02T03:36:58.305Z,20.60
2017-08-02T03:39:25.856Z,21.70
2017-08-02T03:41:53.409Z,22.43
2017-08-02T03:44:20.930Z,22.70
2017-08-02T03:46:49.173Z,24.07
2017-08-02T03:49:16.641Z,23.40
2017-08-02T03:51:44.116Z,25.97
2017-08-02T03:54:12.351Z,24.30
2017-08-02T03:56:40.652Z,23.00
2017-08-02T03:59:08.117Z,23.43
2017-08-02T04:01:36.386Z,24.30
2017-08-02T04:04:03.865Z,23.53
2017-08-02T04:06:31.337Z,22.57
2017-08-02T04:08:58.808Z,25.37
2017-08-02T04:11:26.369Z,19.37
2017-08-02T04:13:53.826Z,22.30
2017-08-02T04:16:21.409Z,22.50
2017-08-02T04:18:48.873Z,22.50
2017-08-02T04:21:16.351Z,21.80
2017-08-02T04:23:44.608Z,22.37
2017-08-02T04:26:12.089Z,21.30
2017-08-02T04:28:40.313Z,23.57
2017-08-02T04:31:07.795Z,21.10
2017-08-02T04:33:35.288Z,22.30
2017-08-02T04:36:02.768Z,20.60
2017-08-02T04:38:30.232Z,21.70
2017-08-02T04:40:57.709Z,22.57
2017-08-02T04:43:25.204Z,19.63
2017-08-02T04:45:53.448Z,20.20
2017-08-02T04:48:20.910Z,19.40
2017-08-02T04:50:48.398Z,18.53
2017-08-02T04:53:16.617Z,17.73
2017-08-02T04:55:44.100Z,21.50
2017-08-02T04:58:11.769Z,19.90
2017-08-02T05:00:39.237Z,21.67
2017-08-02T05:03:07.461Z,19.90
2017-08-02T05:05:34.946Z,19.97
2017-08-02T05:08:02.406Z,20.70
2017-08-02T05:10:30.063Z,18.80
2017-08-02T05:12:57.565Z,20.40
2017-08-02T05:15:25.040Z,21.23
2017-08-02T05:17:52.512Z,20.83
2017-08-02T05:20:19.972Z,22.47
2017-08-02T05:22:47.441Z,23.07
2017-08-02T05:25:14.933Z,22.73
2017-08-02T05:27:43.411Z,20.67
2017-08-02T05:30:10.869Z,24.40
2017-08-02T05:32:39.122Z,27.27
2017-08-02T05:35:06.586Z,26.53
2017-08-02T05:37:34.052Z,26.33
2017-08-02T05:40:02.282Z,25.57
2017-08-02T05:42:29.768Z,24.53
2017-08-02T05:44:57.848Z,25.67
2017-08-02T05:47:25.304Z,28.60
2017-08-02T05:49:52.785Z,26.43
2017-08-02T05:52:21.128Z,25.60
2017-08-02T05:54:48.605Z,26.13
2017-08-02T05:57:16.861Z,28.07
2017-08-02T05:59:44.362Z,27.10
2017-08-02T06:02:11.841Z,28.70
2017-08-02T06:04:39.329Z,25.03
2017-08-02T06:07:06.808Z,26.20
2017-08-02T06:09:35.035Z,24.20
2017-08-02T06:12:02.513Z,22.33
2017-08-02T06:14:30.006Z,24.30
2017-08-02T06:16:58.236Z,24.73
2017-08-02T06:19:25.709Z,23.37
2017-08-02T06:21:53.181Z,22.00
2017-08-02T06:24:21.448Z,22.60
2017-08-02T06:26:48.913Z,22.60
2017-08-02T06:29:17.157Z,22.97
2017-08-02T06:31:44.738Z,22.97
2017-08-02T06:34:12.305Z,22.97
2017-08-02T06:36:40.549Z,21.43
2017-08-02T06:39:08.113Z,22.87
2017-08-02T06:41:35.694Z,21.60
2017-08-02T06:44:03.200Z,22.27
2017-08-02T06:46:30.660Z,20.60
2017-08-02T06:48:58.147Z,18.43
2017-08-02T06:51:25.804Z,19.70
2017-08-02T06:53:53.300Z,19.43
2017-08-02T06:56:21.532Z,19.10
2017-08-02T06:58:49.009Z,20.30
2017-08-02T07:01:17.953Z,18.47
2017-08-02T07:03:45.426Z,17.13
2017-08-02T07:06:12.900Z,16.57
2017-08-02T07:08:40.387Z,15.23
2017-08-02T07:11:08.628Z,13.27
2017-08-02T07:13:36.085Z,13.60
2017-08-02T07:16:03.566Z,13.83
2017-08-02T07:18:31.038Z,12.90
2017-08-02T07:20:59.272Z,13.10
2017-08-02T07:23:26.761Z,10.50
2017-08-02T07:25:55.015Z,11.77
2017-08-02T07:28:22.492Z,11.03
2017-08-02T07:30:50.711Z,10.63
2017-08-02T07:33:18.181Z,10.60
2017-08-02T07:35:46.549Z,10.83
2017-08-02T07:38:14.007Z,11.30
2017-08-02T07:40:41.607Z,10.80
2017-08-02T07:43:09.270Z,11.40
2017-08-02T07:45:36.745Z,12.00
2017-08-02T07:48:05.033Z,12.33
2017-08-02T07:50:32.566Z,13.10
2017-08-02T07:53:00.813Z,11.70
2017-08-02T07:55:28.278Z,10.83
2017-08-02T07:57:55.770Z,11.60
2017-08-02T08:00:24.034Z,11.30
2017-08-02T08:02:52.273Z,10.20
2017-08-02T08:05:19.737Z,11.50
2017-08-02T08:07:47.211Z,13.20
2017-08-02T08:10:14.671Z,11.17
2017-08-02T08:12:42.179Z,11.07
2017-08-02T08:15:09.651Z,11.90
2017-08-02T08:17:37.120Z,11.17
2017-08-02T08:20:04.601Z,11.30
2017-08-02T08:22:32.841Z,11.47
2017-08-02T08:25:00.320Z,11.70
2017-08-02T08:27:27.845Z,10.13
2017-08-02T08:29:55.326Z,11.20
2017-08-02T08:32:22.813Z,11.50
2017-08-02T08:34:51.054Z,11.73
2017-08-02T08:37:18.534Z,11.67
2017-08-02T08:39:46.008Z,11.37
2017-08-02T08:42:14.239Z,13.40
2017-08-02T08:44:41.725Z,11.47
2017-08-02T08:47:09.985Z,11.50
2017-08-02T08:49:37.449Z,11.87
2017-08-02T08:52:04.922Z,11.80
2017-08-02T08:54:33.161Z,11.70
2017-08-02T08:57:00.633Z,11.77
2017-08-02T08:59:28.299Z,11.90
2017-08-02T09:01:55.775Z,10.93
2017-08-02T09:04:24.008Z,11.17
2017-08-02T09:06:51.493Z,10.67
2017-08-02T09:09:19.745Z,11.60
2017-08-02T09:11:47.224Z,11.47
2017-08-02T09:14:15.453Z,10.80
2017-08-02T09:16:43.013Z,10.80
2017-08-02T09:19:10.541Z,11.27
2017-08-02T09:21:38.015Z,8.73
2017-08-02T09:24:05.505Z,9.90
2017-08-02T09:26:32.973Z,9.03
2017-08-02T09:29:00.457Z,9.87
2017-08-02T09:31:28.818Z,9.33
2017-08-02T09:33:56.281Z,10.17
2017-08-02T09:36:24.541Z,9.27
2017-08-02T09:38:52.009Z,8.87
2017-08-02T09:41:20.241Z,9.30
2017-08-02T09:43:47.722Z,8.13
2017-08-02T09:46:15.193Z,9.00
2017-08-02T09:48:42.822Z,8.57
2017-08-02T09:51:10.290Z,7.97
2017-08-02T09:53:37.749Z,8.90
2017-08-02T09:56:05.329Z,9.30
2017-08-02T09:58:32.792Z,9.30
2017-08-02T10:01:01.035Z,9.00
2017-08-02T10:03:28.495Z,8.03
2017-08-02T10:05:55.973Z,6.53
2017-08-02T10:08:24.836Z,7.70
2017-08-02T10:10:52.285Z,8.20
2017-08-02T10:13:19.755Z,9.40
2017-08-02T10:15:47.434Z,8.50
2017-08-02T10:18:14.905Z,7.90
2017-08-02T10:20:43.136Z,7.50
2017-08-02T10:23:10.646Z,10.03
2017-08-02T10:25:38.878Z,9.13
2017-08-02T10:28:07.181Z,8.23
2017-08-02T10:30:35.429Z,9.53
2017-08-02T10:33:02.902Z,8.73
2017-08-02T10:35:30.452Z,10.07
2017-08-02T10:37:57.934Z,10.40
2017-08-02T10:40:26.163Z,11.00
2017-08-02T10:42:53.646Z,9.33
2017-08-02T10:45:21.118Z,10.17
2017-08-02T10:47:49.361Z,10.07
2017-08-02T10:50:16.819Z,7.97
2017-08-02T10:52:44.321Z,10.03
2017-08-02T10:55:12.525Z,8.30
2017-08-02T10:57:40.005Z,9.23
2017-08-02T11:00:07.466Z,7.97
2017-08-02T11:02:34.933Z,6.93
2017-08-02T11:05:02.406Z,6.93
2017-08-02T11:07:30.737Z,7.33
2017-08-02T11:09:58.203Z,6.30
2017-08-02T11:12:25.670Z,5.97
2017-08-02T11:14:53.149Z,5.83
2017-08-02T11:17:21.381Z,6.33
2017-08-02T11:19:48.852Z,5.33
2017-08-02T11:22:16.336Z,6.23
2017-08-02T11:24:43.806Z,6.10
2017-08-02T11:27:11.265Z,6.30
2017-08-02T11:29:38.788Z,4.83
2017-08-02T11:32:06.257Z,5.23
2017-08-02T11:34:33.727Z,4.63
2017-08-02T11:37:02.051Z,4.20
2017-08-02T11:39:29.523Z,3.80
2017-08-02T11:41:56.991Z,3.80
2017-08-02T11:44:24.468Z,4.50
2017-08-02T11:46:51.994Z,3.80
2017-08-02T11:49:19.456Z,4.50
2017-08-02T11:51:46.927Z,4.73
2017-08-02T11:54:14.497Z,3.50
2017-08-02T11:56:42.021Z,4.57
2017-08-02T11:59:09.479Z,4.03
2017-08-02T12:01:37.018Z,4.93
2017-08-02T12:04:04.467Z,5.20
2017-08-02T12:06:31.941Z,4.80
2017-08-02T12:08:59.424Z,4.07
2017-08-02T12:11:26.888Z,4.33
2017-08-02T12:13:54.348Z,4.30
2017-08-02T12:16:21.818Z,3.60
2017-08-02T12:18:50.673Z,4.13
2017-08-02T12:21:18.182Z,3.90
2017-08-02T12:23:45.673Z,4.37
2017-08-02T12:26:13.149Z,4.70
2017-08-02T12:28:40.629Z,4.77
2017-08-02T12:31:08.079Z,4.27
2017-08-02T12:33:35.597Z,4.77
2017-08-02T12:36:03.058Z,4.73
2017-08-02T12:38:30.541Z,4.90
2017-08-02T12:40:58.015Z,5.03
2017-08-02T12:43:26.242Z,4.70
2017-08-02T12:45:53.725Z,4.37
2017-08-02T12:48:21.185Z,4.70
2017-08-02T12:50:48.654Z,4.10
2017-08-02T12:53:16.184Z,3.67
2017-08-02T12:55:43.645Z,3.90
2017-08-02T12:58:11.115Z,3.87
2017-08-02T13:00:41.249Z,4.03
2017-08-02T13:03:08.752Z,3.60
2017-08-02T13:05:36.218Z,4.43
2017-08-02T13:08:03.743Z,3.40
2017-08-02T13:10:32.667Z,3.23
2017-08-02T13:13:00.241Z,4.57
2017-08-02T13:15:27.899Z,5.80
2017-08-02T13:17:55.373Z,5.27
2017-08-02T13:20:22.834Z,4.57
2017-08-02T13:22:50.289Z,4.37
2017-08-02T13:25:17.773Z,4.53
2017-08-02T13:27:45.259Z,4.13
2017-08-02T13:30:12.829Z,3.97
2017-08-02T13:32:40.303Z,3.80
2017-08-02T13:35:07.781Z,4.10
2017-08-02T13:37:35.243Z,3.80
2017-08-02T13:40:03.489Z,4.00
2017-08-02T13:42:30.953Z,3.10
2017-08-02T13:44:58.420Z,2.83
2017-08-02T13:47:25.892Z,2.60
2017-08-02T13:49:54.136Z,2.20
2017-08-02T13:52:21.604Z,2.77
2017-08-02T13:54:49.064Z,3.20
2017-08-02T13:57:16.528Z,2.93
2017-08-02T13:59:43.994Z,2.73
2017-08-02T14:02:12.230Z,2.47
2017-08-02T14:04:39.909Z,2.37
2017-08-02T14:07:07.377Z,2.33
2017-08-02T14:09:35.013Z,2.93
2017-08-02T14:12:02.496Z,2.73
2017-08-02T14:14:29.961Z,2.67
2017-08-02T14:16:58.198Z,2.50
2017-08-02T14:19:25.652Z,2.70
2017-08-02T14:21:53.125Z,2.70
2017-08-02T14:24:20.618Z,2.50
2017-08-02T14:26:48.110Z,2.60
2017-08-02T14:29:15.576Z,3.10
2017-08-02T14:31:43.033Z,2.53
2017-08-02T14:34:10.597Z,2.70
2017-08-02T14:36:38.288Z,2.73
2017-08-02T14:39:06.536Z,2.70
2017-08-02T14:41:33.992Z,2.40
2017-08-02T14:44:01.480Z,2.17
2017-08-02T14:46:29.712Z,3.00
2017-08-02T14:48:57.194Z,2.90
2017-08-02T14:51:24.657Z,3.30
2017-08-02T14:53:52.113Z,2.73
2017-08-02T14:56:19.585Z,2.97
2017-08-02T14:58:47.815Z,3.00
2017-08-02T15:01:15.285Z,2.90
2017-08-02T15:03:42.740Z,2.93
2017-08-02T15:06:10.213Z,2.60
2017-08-02T15:08:37.686Z,2.90
2017-08-02T15:11:05.137Z,2.60
2017-08-02T15:13:32.673Z,2.77
2017-08-02T15:16:00.142Z,2.57
2017-08-02T15:18:27.682Z,2.50
2017-08-02T15:20:55.155Z,2.73
2017-08-02T15:23:22.618Z,3.03
2017-08-02T15:25:50.093Z,3.10
2017-08-02T15:28:17.606Z,2.67
2017-08-02T15:30:45.060Z,3.23
2017-08-02T15:33:12.524Z,2.90
2017-08-02T15:35:40.086Z,3.80
2017-08-02T15:38:07.553Z,3.63
2017-08-02T15:40:35.089Z,3.07
2017-08-02T15:43:02.549Z,3.20
2017-08-02T15:45:30.008Z,2.90
2017-08-02T15:47:57.580Z,3.10
2017-08-02T15:50:25.048Z,3.37
2017-08-02T15:52:52.516Z,3.53
2017-08-02T15:55:20.746Z,3.57
2017-08-02T15:57:48.220Z,2.77
2017-08-02T16:00:15.689Z,4.27
2017-08-02T16:02:43.152Z,3.70
2017-08-02T16:05:10.632Z,3.43
2017-08-02T16:07:38.093Z,4.10
2017-08-02T16:10:05.578Z,3.80
2017-08-02T16:12:33.045Z,3.77
2017-08-02T16:15:00.527Z,3.20
2017-08-02T16:17:28.059Z,3.53
2017-08-02T16:19:55.616Z,4.70
2017-08-02T16:22:23.102Z,3.67
2017-08-02T16:24:50.561Z,3.30
2017-08-02T16:27:18.261Z,3.70
2017-08-02T16:29:45.721Z,3.33
2017-08-02T16:32:13.240Z,3.57
2017-08-02T16:34:41.013Z,4.10
2017-08-02T16:37:09.315Z,3.47
2017-08-02T16:39:36.796Z,3.37
2017-08-02T16:42:05.094Z,3.27
2017-08-02T16:44:33.406Z,3.47
2017-08-02T16:47:02.290Z,3.17
2017-08-02T16:49:30.526Z,3.70
2017-08-02T16:51:58.079Z,4.23
2017-08-02T16:54:25.582Z,3.77
2017-08-02T16:56:53.862Z,3.30
2017-08-02T16:59:21.455Z,3.40
2017-08-02T17:01:49.018Z,3.37
2017-08-02T17:04:17.043Z,3.60
2017-08-02T17:06:45.381Z,3.50
2017-08-02T17:09:12.861Z,3.30
2017-08-02T17:11:40.372Z,3.43
2017-08-02T17:14:07.885Z,3.93
2017-08-02T17:16:35.359Z,3.77
2017-08-02T17:19:02.901Z,3.43
2017-08-02T17:21:30.505Z,3.70
2017-08-02T17:23:58.063Z,3.50
2017-08-02T17:26:25.538Z,3.87
2017-08-02T17:28:53.003Z,3.77
2017-08-02T17:31:20.561Z,4.63
2017-08-02T17:33:48.225Z,4.00
2017-08-02T17:36:15.701Z,5.20
2017-08-02T17:38:43.188Z,4.10
2017-08-02T17:41:11.408Z,4.37
2017-08-02T17:43:38.895Z,4.27
2017-08-02T17:46:07.129Z,4.47
2017-08-02T17:48:34.633Z,3.77
2017-08-02T17:51:02.960Z,3.83
2017-08-02T17:53:30.442Z,3.53
2017-08-02T17:55:57.911Z,3.57
2017-08-02T17:58:25.389Z,3.80
2017-08-02T18:00:53.609Z,4.97
2017-08-02T18:03:21.093Z,4.60
2017-08-02T18:05:48.556Z,4.13
2017-08-02T18:08:16.024Z,4.53
2017-08-02T18:10:44.273Z,4.70
2017-08-02T18:13:11.746Z,4.47
2017-08-02T18:15:39.248Z,4.90
2017-08-02T18:18:06.728Z,4.33
2017-08-02T18:20:34.191Z,4.53
2017-08-02T18:23:01.660Z,4.70
2017-08-02T18:25:29.115Z,4.20
2017-08-02T18:27:56.645Z,4.30
2017-08-02T18:30:24.188Z,3.77
2017-08-02T18:32:51.653Z,3.93
2017-08-02T18:35:19.125Z,5.13
2017-08-02T18:37:46.580Z,4.60
2017-08-02T18:40:14.123Z,4.63
2017-08-02T18:42:41.594Z,5.00
2017-08-02T18:45:09.219Z,4.93
2017-08-02T18:47:36.710Z,4.50
2017-08-02T18:50:04.369Z,4.60
2017-08-02T18:52:31.831Z,5.00
2017-08-02T18:54:59.289Z,5.23
2017-08-02T18:57:26.789Z,4.93
2017-08-02T18:59:55.017Z,5.67
2017-08-02T19:02:22.625Z,6.17
2017-08-02T19:04:50.866Z,6.60
2017-08-02T19:07:18.330Z,5.30
2017-08-02T19:09:45.945Z,5.20
2017-08-02T19:12:13.419Z,6.10
2017-08-02T19:14:40.880Z,6.20
2017-08-02T19:17:08.439Z,6.70
2017-08-02T19:19:35.895Z,5.97
2017-08-02T19:22:03.374Z,5.93
2017-08-02T19:24:30.837Z,7.23
2017-08-02T19:26:58.322Z,5.87
2017-08-02T19:29:26.669Z,6.40
2017-08-02T19:31:54.233Z,5.73
2017-08-02T19:34:22.317Z,5.80
2017-08-02T19:36:49.774Z,5.87
2017-08-02T19:39:17.234Z,6.13
2017-08-02T19:41:44.697Z,5.87
2017-08-02T19:44:12.926Z,6.93
2017-08-02T19:46:40.969Z,5.23
2017-08-02T19:49:08.589Z,5.70
2017-08-02T19:51:36.227Z,6.57
2017-08-02T19:54:04.321Z,6.73
2017-08-02T19:56:31.788Z,6.37
2017-08-02T19:59:00.033Z,6.83
2017-08-02T20:01:27.518Z,7.50
2017-08-02T20:03:54.965Z,7.03
2017-08-02T20:06:22.629Z,7.10
2017-08-02T20:08:50.089Z,7.27
2017-08-02T20:11:17.717Z,8.20
2017-08-02T20:13:45.920Z,7.33
2017-08-02T20:16:14.161Z,7.40
2017-08-02T20:18:41.756Z,7.53
2017-08-02T20:21:09.985Z,7.37
2017-08-02T20:23:37.465Z,7.93
2017-08-02T20:26:05.036Z,8.90
2017-08-02T20:28:32.513Z,9.80
2017-08-02T20:31:00.745Z,8.50
2017-08-02T20:33:28.335Z,9.33
2017-08-02T20:35:55.809Z,9.43
2017-08-02T20:38:24.041Z,11.57
2017-08-02T20:40:51.541Z,10.33
2017-08-02T20:43:19.769Z,11.40
2017-08-02T20:45:47.249Z,11.43
2017-08-02T20:48:14.776Z,10.83
2017-08-02T20:50:42.235Z,11.20
2017-08-02T20:53:09.737Z,11.63
2017-08-02T20:55:37.971Z,11.97
2017-08-02T20:58:05.436Z,11.10
2017-08-02T21:00:32.915Z,11.67
2017-08-02T21:03:00.372Z,11.77
2017-08-02T21:05:28.631Z,10.73
2017-08-02T21:07:56.109Z,11.43
2017-08-02T21:10:23.582Z,10.40
2017-08-02T21:12:51.914Z,11.10
2017-08-02T21:15:19.380Z,10.13
2017-08-02T21:17:46.876Z,10.77
2017-08-02T21:20:14.361Z,11.47
2017-08-02T21:22:41.836Z,11.60
2017-08-02T21:25:09.324Z,10.03
2017-08-02T21:27:36.790Z,11.37
2017-08-02T21:30:05.188Z,8.73
2017-08-02T21:32:32.682Z,9.80
2017-08-02T21:35:00.146Z,9.97
2017-08-02T21:37:27.636Z,9.50
2017-08-02T21:39:56.127Z,11.13
2017-08-02T21:42:23.619Z,11.17
2017-08-02T21:44:51.089Z,11.23
2017-08-02T21:47:18.652Z,11.53
2017-08-02T21:49:46.152Z,11.57
2017-08-02T21:52:14.681Z,10.77
2017-08-02T21:54:42.233Z,11.03
2017-08-02T21:57:10.264Z,9.77
2017-08-02T21:59:38.522Z,10.97
2017-08-02T22:02:06.761Z,9.80
2017-08-02T22:04:34.254Z,11.30
2017-08-02T22:07:02.457Z,11.83
2017-08-02T22:09:29.988Z,11.27
2017-08-02T22:11:57.553Z,11.03
2017-08-02T22:14:25.019Z,10.60
2017-08-02T22:16:53.409Z,10.33
2017-08-02T22:19:21.032Z,10.13
2017-08-02T22:21:48.754Z,10.63
2017-08-02T22:24:16.220Z,9.07
2017-08-02T22:26:43.857Z,9.10
2017-08-02T22:29:11.353Z,9.97
2017-08-02T22:31:38.820Z,8.53
2017-08-02T22:34:06.305Z,9.30
2017-08-02T22:36:34.543Z,8.83
2017-08-02T22:39:01.997Z,11.37
2017-08-02T22:41:29.488Z,10.07
2017-08-02T22:43:57.718Z,11.83
2017-08-02T22:46:25.202Z,10.40
2017-08-02T22:48:54.286Z,10.77
2017-08-02T22:51:21.786Z,12.20
2017-08-02T22:53:49.256Z,12.03
2017-08-02T22:56:23.193Z,9.57
2017-08-02T22:58:50.793Z,11.13
2017-08-02T23:01:19.037Z,12.80
2017-08-02T23:03:46.539Z,12.47
2017-08-02T23:06:14.848Z,12.13
2017-08-02T23:08:42.434Z,10.73
2017-08-02T23:11:09.901Z,11.33
2017-08-02T23:13:37.381Z,12.67
2017-08-02T23:16:04.855Z,11.77
2017-08-02T23:18:32.337Z,11.20
2017-08-02T23:20:59.981Z,12.13
2017-08-02T23:23:27.461Z,12.90
2017-08-02T23:25:55.065Z,11.33
2017-08-02T23:28:23.312Z,11.73
2017-08-02T23:30:50.797Z,13.80
2017-08-02T23:33:19.052Z,12.90
2017-08-02T23:35:46.506Z,11.47
2017-08-02T23:38:13.976Z,15.07
2017-08-02T23:40:41.438Z,14.17
2017-08-02T23:43:08.927Z,13.77
2017-08-02T23:45:36.407Z,12.23
2017-08-02T23:48:03.885Z,12.33
2017-08-02T23:50:31.570Z,12.70
2017-08-02T23:52:59.037Z,12.87
2017-08-02T23:55:27.307Z,13.50
2017-08-02T23:57:55.542Z,14.80
